createdAt,value
2022-10-17T00:00:24.069Z,9.00
2022-10-17T00:00:55.639Z,8.97
2022-10-17T00:01:27.191Z,8.99
2022-10-17T00:01:58.802Z,8.95
2022-10-17T00:02:30.376Z,8.95
2022-10-17T00:03:02.297Z,8.97
2022-10-17T00:03:35.827Z,8.97
2022-10-17T00:04:07.361Z,8.99
2022-10-17T00:04:38.912Z,8.99
2022-10-17T00:05:12.094Z,8.95
2022-10-17T00:05:46.170Z,8.93
2022-10-17T00:06:17.723Z,8.97
2022-10-17T00:06:49.263Z,9.04
2022-10-17T00:07:20.817Z,9.12
2022-10-17T00:07:53.761Z,9.14
2022-10-17T00:08:25.325Z,9.16
2022-10-17T00:08:56.862Z,9.19
2022-10-17T00:09:28.405Z,9.20
2022-10-17T00:09:59.972Z,9.22
2022-10-17T00:10:31.509Z,9.26
2022-10-17T00:11:07.769Z,9.30
2022-10-17T00:11:39.583Z,9.31
2022-10-17T00:12:11.335Z,9.30
2022-10-17T00:12:42.885Z,9.35
2022-10-17T00:13:14.416Z,9.20
2022-10-17T00:13:48.272Z,9.20
2022-10-17T00:14:19.821Z,9.17
2022-10-17T00:14:51.353Z,9.16
2022-10-17T00:15:23.067Z,9.26
2022-10-17T00:15:54.657Z,9.30
2022-10-17T00:16:32.838Z,9.28
2022-10-17T00:17:04.429Z,9.33
2022-10-17T00:17:36.293Z,9.27
2022-10-17T00:18:07.834Z,9.14
2022-10-17T00:18:39.411Z,9.17
2022-10-17T00:19:10.965Z,9.20
2022-10-17T00:19:42.697Z,9.12
2022-10-17T00:20:14.606Z,9.12
2022-10-17T00:20:46.293Z,9.09
2022-10-17T00:21:19.511Z,9.00
2022-10-17T00:21:51.083Z,9.06
2022-10-17T00:22:22.607Z,9.06
2022-10-17T00:22:54.186Z,9.10
2022-10-17T00:23:27.558Z,9.13
2022-10-17T00:24:00.188Z,9.14
2022-10-17T00:24:31.927Z,9.12
2022-10-17T00:25:03.779Z,9.04
2022-10-17T00:25:35.322Z,9.10
2022-10-17T00:26:06.865Z,9.17
2022-10-17T00:26:38.402Z,9.20
2022-10-17T00:27:09.907Z,9.27
2022-10-17T00:27:42.011Z,9.17
2022-10-17T00:28:15.038Z,9.13
2022-10-17T00:28:50.993Z,9.14
2022-10-17T00:29:22.609Z,9.17
2022-10-17T00:29:54.132Z,9.23
2022-10-17T00:30:25.831Z,9.27
2022-10-17T00:31:03.652Z,9.28
2022-10-17T00:31:35.736Z,9.17
2022-10-17T00:32:07.257Z,9.17
2022-10-17T00:32:39.235Z,9.20
2022-10-17T00:33:10.745Z,9.16
2022-10-17T00:33:43.932Z,9.09
2022-10-17T00:34:15.873Z,9.06
2022-10-17T00:34:47.436Z,9.10
2022-10-17T00:35:18.964Z,9.16
2022-10-17T00:35:50.502Z,9.19
2022-10-17T00:36:24.824Z,9.13
2022-10-17T00:36:57.514Z,9.07
2022-10-17T00:37:31.579Z,9.06
2022-10-17T00:38:03.162Z,9.12
2022-10-17T00:38:35.775Z,9.14
2022-10-17T00:39:07.309Z,9.17
2022-10-17T00:39:39.095Z,9.22
2022-10-17T00:40:10.838Z,9.27
2022-10-17T00:40:42.378Z,9.27
2022-10-17T00:41:17.043Z,9.27
2022-10-17T00:41:48.608Z,9.30
2022-10-17T00:42:20.163Z,9.22
2022-10-17T00:42:53.177Z,9.19
2022-10-17T00:43:24.894Z,9.20
2022-10-17T00:43:56.406Z,9.20
2022-10-17T00:44:30.959Z,9.27
2022-10-17T00:45:27.018Z,9.20
2022-10-17T00:45:58.583Z,9.16
2022-10-17T00:46:38.268Z,9.16
2022-10-17T00:47:17.048Z,9.16
2022-10-17T00:47:56.125Z,9.16
2022-10-17T00:48:27.822Z,9.19
2022-10-17T00:49:06.870Z,9.13
2022-10-17T00:49:38.812Z,9.12
2022-10-17T00:50:11.699Z,9.14
2022-10-17T00:50:46.388Z,9.17
2022-10-17T00:51:22.804Z,9.06
2022-10-17T00:52:03.754Z,9.02
2022-10-17T00:52:35.801Z,9.03
2022-10-17T00:53:09.504Z,8.95
2022-10-17T00:53:41.263Z,8.96
2022-10-17T00:54:16.247Z,8.95
2022-10-17T00:54:53.766Z,9.00
2022-10-17T00:55:30.839Z,9.00
2022-10-17T00:56:02.526Z,9.07
2022-10-17T00:56:34.754Z,9.13
2022-10-17T00:57:07.034Z,9.16
2022-10-17T00:57:39.707Z,9.16
2022-10-17T00:58:11.494Z,9.14
2022-10-17T00:58:43.065Z,9.07
2022-10-17T00:59:16.967Z,9.12
2022-10-17T00:59:52.688Z,9.06
2022-10-17T01:00:24.647Z,9.00
2022-10-17T01:00:56.175Z,8.96
2022-10-17T01:01:27.845Z,8.95
2022-10-17T01:02:19.658Z,9.00
2022-10-17T01:02:51.209Z,9.07
2022-10-17T01:03:23.419Z,9.10
2022-10-17T01:03:55.003Z,9.00
2022-10-17T01:04:26.741Z,9.04
2022-10-17T01:04:59.572Z,9.04
2022-10-17T01:05:31.103Z,9.07
2022-10-17T01:06:02.625Z,9.06
2022-10-17T01:06:34.145Z,9.12
2022-10-17T01:07:05.679Z,9.14
2022-10-17T01:07:39.031Z,9.09
2022-10-17T01:08:12.153Z,9.07
2022-10-17T01:08:43.932Z,9.12
2022-10-17T01:09:15.534Z,9.14
2022-10-17T01:09:47.544Z,9.12
2022-10-17T01:10:20.619Z,9.09
2022-10-17T01:11:01.566Z,8.93
2022-10-17T01:11:52.396Z,8.90
2022-10-17T01:12:41.655Z,9.00
2022-10-17T01:13:50.857Z,8.99
2022-10-17T01:14:47.236Z,8.95
2022-10-17T01:15:59.914Z,9.07
2022-10-17T01:17:14.932Z,9.16
2022-10-17T01:17:55.460Z,9.12
2022-10-17T01:18:51.556Z,9.00
2022-10-17T01:19:32.142Z,8.92
2022-10-17T01:20:25.282Z,8.99
2022-10-17T01:21:18.382Z,8.93
2022-10-17T01:22:00.868Z,8.89
2022-10-17T01:23:07.524Z,9.04
2022-10-17T01:23:50.967Z,9.07
2022-10-17T01:24:53.547Z,9.12
2022-10-17T01:25:49.369Z,9.10
2022-10-17T01:26:26.816Z,9.13
2022-10-17T01:27:19.558Z,9.14
2022-10-17T01:28:14.410Z,9.10
2022-10-17T01:28:48.558Z,9.09
2022-10-17T01:29:57.522Z,9.16
2022-10-17T01:30:47.915Z,9.16
2022-10-17T01:31:23.826Z,9.19
2022-10-17T01:32:01.184Z,9.20
2022-10-17T01:32:44.242Z,9.17
2022-10-17T01:33:21.555Z,9.23
2022-10-17T01:34:12.303Z,9.24
2022-10-17T01:34:59.910Z,9.23
2022-10-17T01:35:54.019Z,9.22
2022-10-17T01:36:37.468Z,9.23
2022-10-17T01:37:36.159Z,9.28
2022-10-17T01:38:16.565Z,9.24
2022-10-17T01:38:53.401Z,9.31
2022-10-17T01:39:29.975Z,9.33
2022-10-17T01:40:10.691Z,9.17
2022-10-17T01:40:53.806Z,9.16
2022-10-17T01:41:49.210Z,9.20
2022-10-17T01:42:43.969Z,9.20
2022-10-17T01:43:40.764Z,9.17
2022-10-17T01:44:29.152Z,9.04
2022-10-17T01:45:35.156Z,9.20
2022-10-17T01:46:26.992Z,9.24
2022-10-17T01:47:05.307Z,9.16
2022-10-17T01:47:38.112Z,9.16
2022-10-17T01:48:16.331Z,9.20
2022-10-17T01:48:47.864Z,9.20
2022-10-17T01:49:24.349Z,9.24
2022-10-17T01:50:00.940Z,9.31
2022-10-17T01:50:36.321Z,9.34
2022-10-17T01:51:27.590Z,9.35
2022-10-17T01:52:08.799Z,9.22
2022-10-17T01:52:45.479Z,9.30
2022-10-17T01:53:24.135Z,9.28
2022-10-17T01:54:02.281Z,9.24
2022-10-17T01:54:40.591Z,9.26
2022-10-17T01:55:20.493Z,9.28
2022-10-17T01:55:55.587Z,9.27
2022-10-17T01:56:29.945Z,9.27
2022-10-17T01:57:05.879Z,9.24
2022-10-17T01:57:42.754Z,9.19
2022-10-17T01:58:20.843Z,9.28
2022-10-17T01:59:00.730Z,9.35
2022-10-17T01:59:42.474Z,9.30
2022-10-17T02:01:07.457Z,9.37
2022-10-17T02:01:41.561Z,9.30
2022-10-17T02:02:16.930Z,9.27
2022-10-17T02:02:51.935Z,9.30
2022-10-17T02:03:25.529Z,9.26
2022-10-17T02:03:59.302Z,9.22
2022-10-17T02:04:31.110Z,9.24
2022-10-17T02:05:04.152Z,9.30
2022-10-17T02:05:39.334Z,9.33
2022-10-17T02:06:10.886Z,9.24
2022-10-17T02:06:42.402Z,9.26
2022-10-17T02:07:14.006Z,9.27
2022-10-17T02:07:45.510Z,9.23
2022-10-17T02:08:28.910Z,9.22
2022-10-17T02:09:00.429Z,9.23
2022-10-17T02:09:31.987Z,9.22
2022-10-17T02:10:15.881Z,9.27
2022-10-17T02:10:50.544Z,9.20
2022-10-17T02:11:24.739Z,9.07
2022-10-17T02:12:08.247Z,9.06
2022-10-17T02:12:50.544Z,9.03
2022-10-17T02:13:37.886Z,9.09
2022-10-17T02:14:31.912Z,9.17
2022-10-17T02:15:44.280Z,9.14
2022-10-17T02:16:40.238Z,9.07
2022-10-17T02:17:33.448Z,9.02
2022-10-17T02:18:20.064Z,9.12
2022-10-17T02:19:03.890Z,8.96
2022-10-17T02:19:54.354Z,8.89
2022-10-17T02:20:35.667Z,8.90
2022-10-17T02:21:11.423Z,8.93
2022-10-17T02:22:01.182Z,8.99
2022-10-17T02:22:43.889Z,8.95
2022-10-17T02:23:27.313Z,8.92
2022-10-17T02:24:32.711Z,8.92
2022-10-17T02:25:22.734Z,8.76
2022-10-17T02:26:12.048Z,8.75
2022-10-17T02:27:05.487Z,8.82
2022-10-17T02:27:39.603Z,8.77
2022-10-17T02:28:23.451Z,8.66
2022-10-17T02:29:04.499Z,8.69
2022-10-17T02:30:11.683Z,8.75
2022-10-17T02:30:53.285Z,8.65
2022-10-17T02:31:40.056Z,8.66
2022-10-17T02:32:25.971Z,8.52
2022-10-17T02:33:16.748Z,8.64
2022-10-17T02:34:02.666Z,8.61
2022-10-17T02:34:40.012Z,8.62
2022-10-17T02:35:14.464Z,8.65
2022-10-17T02:35:51.514Z,8.61
2022-10-17T02:36:29.021Z,8.59
2022-10-17T02:37:03.451Z,8.58
2022-10-17T02:37:36.456Z,8.52
2022-10-17T02:38:10.675Z,8.48
2022-10-17T02:38:44.461Z,8.52
2022-10-17T02:39:16.850Z,8.46
2022-10-17T02:39:50.664Z,8.45
2022-10-17T02:40:24.197Z,8.37
2022-10-17T02:40:56.441Z,8.45
2022-10-17T02:42:05.270Z,8.52
2022-10-17T02:42:37.699Z,8.56
2022-10-17T02:43:09.411Z,8.52
2022-10-17T02:43:45.207Z,8.54
2022-10-17T02:44:17.410Z,8.56
2022-10-17T02:44:49.468Z,8.62
2022-10-17T02:45:24.286Z,8.61
2022-10-17T02:45:56.727Z,8.54
2022-10-17T02:46:29.289Z,8.56
2022-10-17T02:47:23.903Z,8.68
2022-10-17T02:48:14.462Z,8.69
2022-10-17T02:48:51.862Z,8.61
2022-10-17T02:49:31.497Z,8.62
2022-10-17T02:50:04.141Z,8.66
2022-10-17T02:50:57.176Z,8.72
2022-10-17T02:51:56.760Z,8.66
2022-10-17T02:52:36.810Z,8.65
2022-10-17T02:53:22.970Z,8.65
2022-10-17T02:54:06.325Z,8.68
2022-10-17T02:54:43.090Z,8.61
2022-10-17T02:55:19.966Z,8.65
2022-10-17T02:56:00.030Z,8.64
2022-10-17T02:56:36.966Z,8.64
2022-10-17T02:57:31.709Z,8.59
2022-10-17T02:58:09.038Z,8.66
2022-10-17T02:58:43.138Z,8.71
2022-10-17T02:59:17.713Z,8.72
2022-10-17T02:59:51.031Z,8.69
2022-10-17T03:00:24.807Z,8.59
2022-10-17T03:00:56.841Z,8.58
2022-10-17T03:01:30.493Z,8.68
2022-10-17T03:02:06.410Z,8.68
2022-10-17T03:02:49.706Z,8.66
2022-10-17T03:03:23.869Z,8.66
2022-10-17T03:04:13.750Z,8.65
2022-10-17T03:04:46.610Z,8.66
2022-10-17T03:05:21.706Z,8.68
2022-10-17T03:05:54.081Z,8.73
2022-10-17T03:06:25.598Z,8.77
2022-10-17T03:06:57.172Z,8.77
2022-10-17T03:07:28.690Z,8.73
2022-10-17T03:08:00.190Z,8.71
2022-10-17T03:08:31.814Z,8.71
2022-10-17T03:09:04.117Z,8.72
2022-10-17T03:09:35.626Z,8.45
2022-10-17T03:10:07.410Z,8.52
2022-10-17T03:10:38.914Z,8.49
2022-10-17T03:11:10.411Z,8.55
2022-10-17T03:11:42.276Z,8.56
2022-10-17T03:12:13.830Z,8.61
2022-10-17T03:12:45.463Z,8.65
2022-10-17T03:13:17.700Z,8.41
2022-10-17T03:13:49.235Z,8.45
2022-10-17T03:14:20.751Z,8.46
2022-10-17T03:14:52.270Z,8.46
2022-10-17T03:15:23.786Z,8.54
2022-10-17T03:15:56.930Z,8.42
2022-10-17T03:16:28.594Z,8.42
2022-10-17T03:17:00.224Z,8.37
2022-10-17T03:17:31.901Z,8.30
2022-10-17T03:18:03.916Z,8.33
2022-10-17T03:18:35.438Z,8.38
2022-10-17T03:19:07.779Z,8.38
2022-10-17T03:19:39.271Z,8.24
2022-10-17T03:20:11.147Z,8.25
2022-10-17T03:20:42.710Z,8.35
2022-10-17T03:21:14.227Z,8.41
2022-10-17T03:21:45.731Z,8.33
2022-10-17T03:22:17.232Z,8.42
2022-10-17T03:22:48.762Z,8.46
2022-10-17T03:23:20.272Z,8.48
2022-10-17T03:23:51.818Z,8.42
2022-10-17T03:24:23.369Z,8.31
2022-10-17T03:24:54.896Z,8.31
2022-10-17T03:25:26.454Z,8.34
2022-10-17T03:25:57.951Z,8.37
2022-10-17T03:26:29.728Z,8.44
2022-10-17T03:27:01.262Z,8.44
2022-10-17T03:27:33.118Z,8.46
2022-10-17T03:28:05.580Z,8.49
2022-10-17T03:28:37.295Z,8.49
2022-10-17T03:29:08.893Z,8.45
2022-10-17T03:29:40.462Z,8.52
2022-10-17T03:30:12.164Z,8.51
2022-10-17T03:30:43.671Z,8.51
2022-10-17T03:31:17.370Z,8.48
2022-10-17T03:31:48.862Z,8.46
2022-10-17T03:32:20.430Z,8.46
2022-10-17T03:32:51.931Z,8.54
2022-10-17T03:33:23.458Z,8.56
2022-10-17T03:33:55.054Z,8.58
2022-10-17T03:34:28.089Z,8.64
2022-10-17T03:34:59.618Z,8.65
2022-10-17T03:35:31.114Z,8.69
2022-10-17T03:36:10.538Z,8.56
2022-10-17T03:36:42.098Z,8.61
2022-10-17T03:37:13.615Z,8.61
2022-10-17T03:37:45.193Z,8.68
2022-10-17T03:38:16.707Z,8.66
2022-10-17T03:38:48.483Z,8.64
2022-10-17T03:39:20.061Z,8.66
2022-10-17T03:39:51.578Z,8.66
2022-10-17T03:40:23.128Z,8.69
2022-10-17T03:40:56.118Z,8.66
2022-10-17T03:41:27.633Z,8.58
2022-10-17T03:41:59.177Z,8.51
2022-10-17T03:42:31.991Z,8.49
2022-10-17T03:43:03.536Z,8.44
2022-10-17T03:43:35.315Z,8.51
2022-10-17T03:44:06.849Z,8.56
2022-10-17T03:44:38.380Z,8.48
2022-10-17T03:45:10.118Z,8.56
2022-10-17T03:45:41.624Z,8.58
2022-10-17T03:46:13.218Z,8.62
2022-10-17T03:46:44.792Z,8.64
2022-10-17T03:47:16.321Z,8.68
2022-10-17T03:47:47.835Z,8.59
2022-10-17T03:48:19.353Z,8.65
2022-10-17T03:48:50.856Z,8.58
2022-10-17T03:49:22.390Z,8.68
2022-10-17T03:49:54.443Z,8.72
2022-10-17T03:50:26.037Z,8.68
2022-10-17T03:51:02.519Z,8.62
2022-10-17T03:51:35.186Z,8.59
2022-10-17T03:52:06.694Z,8.42
2022-10-17T03:52:38.204Z,8.42
2022-10-17T03:53:09.729Z,8.48
2022-10-17T03:53:41.261Z,8.54
2022-10-17T03:54:12.781Z,8.61
2022-10-17T03:54:44.304Z,8.49
2022-10-17T03:55:16.127Z,8.46
2022-10-17T03:55:47.634Z,8.38
2022-10-17T03:56:24.709Z,8.38
2022-10-17T03:57:28.984Z,8.44
2022-10-17T03:58:00.771Z,8.40
2022-10-17T03:58:32.334Z,8.45
2022-10-17T03:59:04.147Z,8.48
2022-10-17T03:59:35.637Z,8.45
2022-10-17T04:00:07.905Z,8.44
2022-10-17T04:00:39.415Z,8.38
2022-10-17T04:01:13.085Z,8.30
2022-10-17T04:01:44.802Z,8.34
2022-10-17T04:02:16.353Z,8.31
2022-10-17T04:02:47.863Z,8.42
2022-10-17T04:03:19.431Z,8.44
2022-10-17T04:03:52.991Z,8.40
2022-10-17T04:04:24.623Z,8.46
2022-10-17T04:04:56.127Z,8.49
2022-10-17T04:05:27.943Z,8.40
2022-10-17T04:06:01.018Z,8.31
2022-10-17T04:06:32.588Z,8.28
2022-10-17T04:07:04.095Z,8.37
2022-10-17T04:07:37.297Z,8.40
2022-10-17T04:08:09.404Z,8.37
2022-10-17T04:08:42.682Z,8.17
2022-10-17T04:09:14.261Z,8.23
2022-10-17T04:09:45.784Z,8.28
2022-10-17T04:10:17.427Z,8.24
2022-10-17T04:10:48.974Z,8.25
2022-10-17T04:11:21.832Z,8.31
2022-10-17T04:11:53.479Z,8.31
2022-10-17T04:12:25.019Z,8.33
2022-10-17T04:12:56.598Z,8.30
2022-10-17T04:13:28.407Z,8.37
2022-10-17T04:14:00.151Z,8.40
2022-10-17T04:14:31.666Z,8.34
2022-10-17T04:15:03.690Z,8.38
2022-10-17T04:15:35.194Z,8.37
2022-10-17T04:16:12.347Z,8.40
2022-10-17T04:16:43.847Z,8.40
2022-10-17T04:17:15.407Z,8.44
2022-10-17T04:17:48.579Z,8.49
2022-10-17T04:18:20.242Z,8.40
2022-10-17T04:18:56.534Z,8.37
2022-10-17T04:19:28.059Z,8.35
2022-10-17T04:19:59.639Z,8.48
2022-10-17T04:20:31.447Z,8.51
2022-10-17T04:21:04.296Z,8.46
2022-10-17T04:21:35.846Z,8.54
2022-10-17T04:22:08.491Z,8.52
2022-10-17T04:22:40.060Z,8.55
2022-10-17T04:23:11.564Z,8.64
2022-10-17T04:23:43.083Z,8.54
2022-10-17T04:24:14.790Z,8.55
2022-10-17T04:24:46.295Z,8.59
2022-10-17T04:25:17.834Z,8.58
2022-10-17T04:25:49.414Z,8.42
2022-10-17T04:26:21.143Z,8.42
2022-10-17T04:26:52.835Z,8.51
2022-10-17T04:27:24.580Z,8.58
2022-10-17T04:27:56.094Z,8.56
2022-10-17T04:28:28.169Z,8.59
2022-10-17T04:28:59.785Z,8.54
2022-10-17T04:29:31.303Z,8.55
2022-10-17T04:30:02.919Z,8.41
2022-10-17T04:30:34.511Z,8.40
2022-10-17T04:31:08.240Z,8.40
2022-10-17T04:31:39.767Z,8.46
2022-10-17T04:32:11.302Z,8.46
2022-10-17T04:32:42.919Z,8.52
2022-10-17T04:33:14.413Z,8.51
2022-10-17T04:33:50.272Z,8.51
2022-10-17T04:34:21.991Z,8.51
2022-10-17T04:34:53.491Z,8.54
2022-10-17T04:35:25.005Z,8.52
2022-10-17T04:36:04.924Z,8.46
2022-10-17T04:36:36.431Z,8.46
2022-10-17T04:37:07.942Z,8.48
2022-10-17T04:37:39.567Z,8.38
2022-10-17T04:38:11.094Z,8.38
2022-10-17T04:38:42.780Z,8.33
2022-10-17T04:39:50.726Z,8.30
2022-10-17T04:40:22.359Z,8.27
2022-10-17T04:40:53.956Z,8.24
2022-10-17T04:41:26.039Z,8.21
2022-10-17T04:41:57.587Z,8.25
2022-10-17T04:42:29.708Z,8.21
2022-10-17T04:43:01.523Z,8.24
2022-10-17T04:43:34.894Z,8.28
2022-10-17T04:44:06.466Z,8.21
2022-10-17T04:44:38.044Z,8.25
2022-10-17T04:45:10.215Z,8.30
2022-10-17T04:45:41.748Z,8.35
2022-10-17T04:46:14.911Z,8.27
2022-10-17T04:46:46.519Z,8.23
2022-10-17T04:47:18.197Z,8.18
2022-10-17T04:47:49.710Z,8.23
2022-10-17T04:48:21.233Z,8.13
2022-10-17T04:48:53.912Z,8.17
2022-10-17T04:49:25.412Z,8.00
2022-10-17T04:49:56.933Z,8.04
2022-10-17T04:50:28.463Z,8.10
2022-10-17T04:51:06.104Z,8.21
2022-10-17T04:51:38.295Z,8.20
2022-10-17T04:52:09.831Z,8.11
2022-10-17T04:52:41.325Z,8.11
2022-10-17T04:53:12.900Z,8.07
2022-10-17T04:53:45.062Z,8.18
2022-10-17T04:54:16.635Z,8.17
2022-10-17T04:54:48.142Z,8.20
2022-10-17T04:55:19.656Z,8.16
2022-10-17T04:55:51.540Z,8.00
2022-10-17T04:56:24.731Z,8.04
2022-10-17T04:56:56.253Z,8.06
2022-10-17T04:57:27.815Z,8.16
2022-10-17T04:57:59.374Z,8.11
2022-10-17T04:58:30.883Z,8.18
2022-10-17T04:59:02.409Z,8.25
2022-10-17T04:59:33.957Z,8.28
2022-10-17T05:00:06.017Z,8.28
2022-10-17T05:00:37.605Z,8.24
2022-10-17T05:01:14.431Z,8.28
2022-10-17T05:01:46.004Z,8.28
2022-10-17T05:02:17.526Z,8.31
2022-10-17T05:02:49.088Z,8.37
2022-10-17T05:03:20.608Z,8.38
2022-10-17T05:03:52.818Z,8.42
2022-10-17T05:04:25.357Z,8.34
2022-10-17T05:04:56.920Z,8.38
2022-10-17T05:05:28.535Z,8.42
2022-10-17T05:06:04.292Z,8.42
2022-10-17T05:06:37.884Z,8.44
2022-10-17T05:07:09.423Z,8.44
2022-10-17T05:07:41.276Z,8.38
2022-10-17T05:08:13.141Z,8.41
2022-10-17T05:08:45.126Z,8.37
2022-10-17T05:09:16.626Z,8.44
2022-10-17T05:09:48.148Z,8.44
2022-10-17T05:10:19.708Z,8.41
2022-10-17T05:10:51.264Z,8.42
2022-10-17T05:11:25.209Z,8.45
2022-10-17T05:11:56.714Z,8.52
2022-10-17T05:12:28.398Z,8.51
2022-10-17T05:13:00.108Z,8.51
2022-10-17T05:13:32.679Z,8.52
2022-10-17T05:14:04.195Z,8.46
2022-10-17T05:14:35.689Z,8.44
2022-10-17T05:15:08.087Z,8.46
2022-10-17T05:15:40.136Z,8.40
2022-10-17T05:16:11.685Z,8.45
2022-10-17T05:16:43.186Z,8.38
2022-10-17T05:17:14.697Z,8.34
2022-10-17T05:17:46.229Z,8.31
2022-10-17T05:18:17.754Z,8.31
2022-10-17T05:18:53.015Z,8.42
2022-10-17T05:19:24.786Z,8.42
2022-10-17T05:19:56.291Z,8.54
2022-10-17T05:20:28.979Z,8.56
2022-10-17T05:21:00.490Z,8.56
2022-10-17T05:22:04.529Z,8.59
2022-10-17T05:22:38.345Z,8.52
2022-10-17T05:23:12.780Z,8.61
2022-10-17T05:23:44.318Z,8.59
2022-10-17T05:24:16.500Z,8.64
2022-10-17T05:24:48.029Z,8.73
2022-10-17T05:25:20.290Z,8.55
2022-10-17T05:25:55.856Z,8.44
2022-10-17T05:26:27.415Z,8.35
2022-10-17T05:26:59.010Z,8.35
2022-10-17T05:27:30.535Z,8.35
2022-10-17T05:28:02.049Z,8.44
2022-10-17T05:28:34.958Z,8.48
2022-10-17T05:29:06.816Z,8.37
2022-10-17T05:29:39.117Z,8.38
2022-10-17T05:30:10.865Z,8.40
2022-10-17T05:30:42.375Z,8.38
2022-10-17T05:31:14.038Z,8.37
2022-10-17T05:31:45.583Z,8.35
2022-10-17T05:32:17.127Z,8.31
2022-10-17T05:32:51.533Z,8.41
2022-10-17T05:33:23.562Z,8.42
2022-10-17T05:33:55.388Z,8.51
2022-10-17T05:34:27.053Z,8.54
2022-10-17T05:34:58.576Z,8.58
2022-10-17T05:35:30.089Z,8.55
2022-10-17T05:36:01.933Z,8.44
2022-10-17T05:36:33.467Z,8.59
2022-10-17T05:37:04.973Z,8.62
2022-10-17T05:37:36.598Z,8.68
2022-10-17T05:38:08.153Z,8.77
2022-10-17T05:38:39.663Z,8.69
2022-10-17T05:39:14.038Z,8.80
2022-10-17T05:39:50.564Z,8.69
2022-10-17T05:40:23.122Z,8.64
2022-10-17T05:40:59.174Z,8.64
2022-10-17T05:41:30.676Z,8.75
2022-10-17T05:42:02.296Z,8.75
2022-10-17T05:42:34.101Z,8.66
2022-10-17T05:43:05.836Z,8.68
2022-10-17T05:43:37.430Z,8.72
2022-10-17T05:44:08.931Z,8.64
2022-10-17T05:44:41.454Z,8.61
2022-10-17T05:45:13.191Z,8.55
2022-10-17T05:45:44.758Z,8.68
2022-10-17T05:46:16.315Z,8.75
2022-10-17T05:46:50.778Z,8.66
2022-10-17T05:47:22.356Z,8.72
2022-10-17T05:47:53.866Z,8.80
2022-10-17T05:48:25.529Z,8.90
2022-10-17T05:48:57.090Z,8.99
2022-10-17T05:49:40.032Z,8.97
2022-10-17T05:50:16.590Z,8.97
2022-10-17T05:50:48.839Z,9.00
2022-10-17T05:51:20.498Z,8.99
2022-10-17T05:51:52.022Z,9.04
2022-10-17T05:52:23.555Z,9.00
2022-10-17T05:52:55.860Z,8.95
2022-10-17T05:53:31.196Z,8.92
2022-10-17T05:54:06.474Z,8.93
2022-10-17T05:54:38.072Z,9.02
2022-10-17T05:55:10.035Z,8.87
2022-10-17T05:55:41.842Z,8.87
2022-10-17T05:56:14.426Z,8.99
2022-10-17T05:56:45.962Z,8.99
2022-10-17T05:57:17.738Z,8.99
2022-10-17T05:57:50.535Z,8.97
2022-10-17T05:58:32.433Z,9.07
2022-10-17T05:59:10.187Z,9.12
2022-10-17T05:59:41.716Z,9.17
2022-10-17T06:00:14.070Z,9.10
2022-10-17T06:01:18.186Z,9.17
2022-10-17T06:01:49.802Z,9.17
2022-10-17T06:02:21.932Z,9.20
2022-10-17T06:02:53.592Z,9.24
2022-10-17T06:03:25.128Z,9.28
2022-10-17T06:03:56.682Z,9.35
2022-10-17T06:04:28.769Z,9.41
2022-10-17T06:05:00.284Z,9.52
2022-10-17T06:05:31.861Z,9.58
2022-10-17T06:06:08.844Z,9.71
2022-10-17T06:06:40.523Z,9.75
2022-10-17T06:07:12.981Z,9.81
2022-10-17T06:07:44.504Z,9.84
2022-10-17T06:08:16.939Z,9.82
2022-10-17T06:08:48.443Z,9.86
2022-10-17T06:09:20.051Z,9.93
2022-10-17T06:09:51.601Z,10.01
2022-10-17T06:10:23.170Z,10.05
2022-10-17T06:10:54.740Z,10.10
2022-10-17T06:11:26.419Z,10.16
2022-10-17T06:11:57.931Z,10.20
2022-10-17T06:12:29.656Z,10.28
2022-10-17T06:13:01.477Z,10.34
2022-10-17T06:13:33.117Z,10.43
2022-10-17T06:14:04.666Z,10.49
2022-10-17T06:14:36.200Z,10.50
2022-10-17T06:15:08.554Z,10.51
2022-10-17T06:15:40.106Z,10.54
2022-10-17T06:16:11.800Z,10.56
2022-10-17T06:16:43.730Z,10.59
2022-10-17T06:17:16.349Z,10.61
2022-10-17T06:17:48.147Z,10.67
2022-10-17T06:18:19.689Z,10.68
2022-10-17T06:18:51.360Z,10.71
2022-10-17T06:19:22.970Z,10.74
2022-10-17T06:19:54.492Z,10.71
2022-10-17T06:20:26.043Z,10.77
2022-10-17T06:21:25.259Z,10.81
2022-10-17T06:21:56.794Z,10.91
2022-10-17T06:22:28.639Z,10.94
2022-10-17T06:23:00.382Z,11.00
2022-10-17T06:23:32.019Z,11.02
2022-10-17T06:24:03.737Z,11.07
2022-10-17T06:24:35.249Z,11.05
2022-10-17T06:25:07.139Z,11.12
2022-10-17T06:25:38.733Z,11.23
2022-10-17T06:26:10.653Z,11.38
2022-10-17T06:26:42.528Z,11.59
2022-10-17T06:27:14.060Z,11.65
2022-10-17T06:27:45.595Z,11.66
2022-10-17T06:28:17.179Z,11.67
2022-10-17T06:28:48.810Z,11.66
2022-10-17T06:29:20.519Z,11.74
2022-10-17T06:29:52.150Z,11.80
2022-10-17T06:30:23.865Z,11.83
2022-10-17T06:30:55.557Z,11.87
2022-10-17T06:31:27.099Z,11.95
2022-10-17T06:31:58.609Z,11.97
2022-10-17T06:32:30.583Z,12.00
2022-10-17T06:33:02.253Z,12.05
2022-10-17T06:33:34.473Z,12.17
2022-10-17T06:34:05.991Z,12.20
2022-10-17T06:34:37.502Z,12.25
2022-10-17T06:35:09.201Z,12.28
2022-10-17T06:35:40.711Z,12.31
2022-10-17T06:36:13.989Z,12.32
2022-10-17T06:36:45.696Z,12.29
2022-10-17T06:37:17.275Z,12.31
2022-10-17T06:37:48.811Z,12.38
2022-10-17T06:38:20.648Z,12.49
2022-10-17T06:38:52.252Z,12.58
2022-10-17T06:39:26.788Z,12.66
2022-10-17T06:39:58.399Z,12.73
2022-10-17T06:40:30.292Z,12.82
2022-10-17T06:41:13.378Z,12.83
2022-10-17T06:41:45.024Z,12.85
2022-10-17T06:42:16.975Z,12.89
2022-10-17T06:42:48.654Z,12.90
2022-10-17T06:43:25.593Z,12.95
2022-10-17T06:43:59.418Z,13.00
2022-10-17T06:44:31.957Z,13.08
2022-10-17T06:45:03.955Z,13.14
2022-10-17T06:45:35.477Z,13.21
2022-10-17T06:46:07.113Z,13.26
2022-10-17T06:46:39.983Z,13.33
2022-10-17T06:47:13.432Z,13.47
2022-10-17T06:47:46.922Z,13.57
2022-10-17T06:48:18.443Z,13.92
2022-10-17T06:48:50.074Z,14.36
2022-10-17T06:49:21.605Z,14.84
2022-10-17T06:49:53.142Z,15.26
2022-10-17T06:50:24.662Z,15.71
2022-10-17T06:51:00.639Z,16.04
2022-10-17T06:51:35.923Z,16.26
2022-10-17T06:52:07.474Z,16.76
2022-10-17T06:52:39.607Z,16.79
2022-10-17T06:53:11.565Z,16.93
2022-10-17T06:53:43.120Z,16.94
2022-10-17T06:54:14.812Z,16.91
2022-10-17T06:54:46.358Z,16.66
2022-10-17T06:55:21.418Z,17.11
2022-10-17T06:55:55.397Z,17.32
2022-10-17T06:56:27.067Z,17.28
2022-10-17T06:56:58.791Z,17.49
2022-10-17T06:57:30.682Z,17.79
2022-10-17T06:58:02.576Z,18.13
2022-10-17T06:58:39.141Z,18.10
2022-10-17T06:59:11.018Z,18.30
2022-10-17T06:59:42.576Z,18.65
2022-10-17T07:00:14.240Z,18.87
2022-10-17T07:00:45.848Z,19.01
2022-10-17T07:01:17.695Z,19.22
2022-10-17T07:01:49.306Z,19.26
2022-10-17T07:02:21.195Z,19.73
2022-10-17T07:02:52.843Z,20.22
2022-10-17T07:03:24.440Z,20.42
2022-10-17T07:03:55.987Z,21.47
2022-10-17T07:04:27.849Z,22.05
2022-10-17T07:04:59.368Z,22.58
2022-10-17T07:05:30.901Z,22.91
2022-10-17T07:06:03.319Z,23.41
2022-10-17T07:06:34.975Z,23.84
2022-10-17T07:07:06.573Z,24.55
2022-10-17T07:07:40.199Z,25.14
2022-10-17T07:08:14.694Z,25.45
2022-10-17T07:08:46.573Z,25.23
2022-10-17T07:09:18.199Z,25.34
2022-10-17T07:09:51.648Z,25.37
2022-10-17T07:10:23.338Z,24.82
2022-10-17T07:10:55.403Z,24.11
2022-10-17T07:11:26.952Z,23.30
2022-10-17T07:11:59.160Z,21.75
2022-10-17T07:12:30.675Z,20.75
2022-10-17T07:13:02.199Z,19.64
2022-10-17T07:13:38.833Z,18.32
2022-10-17T07:14:10.775Z,17.59
2022-10-17T07:14:42.469Z,17.61
2022-10-17T07:15:13.985Z,17.62
2022-10-17T07:15:46.137Z,17.71
2022-10-17T07:16:17.917Z,17.95
2022-10-17T07:16:49.965Z,18.18
2022-10-17T07:17:21.654Z,18.29
2022-10-17T07:17:53.209Z,17.89
2022-10-17T07:18:24.737Z,17.99
2022-10-17T07:18:56.444Z,17.69
2022-10-17T07:19:28.062Z,17.52
2022-10-17T07:19:59.571Z,17.51
2022-10-17T07:20:31.339Z,17.78
2022-10-17T07:21:04.032Z,17.58
2022-10-17T07:21:38.950Z,17.23
2022-10-17T07:22:11.694Z,17.14
2022-10-17T07:22:43.270Z,17.04
2022-10-17T07:23:14.802Z,17.04
2022-10-17T07:23:46.400Z,17.08
2022-10-17T07:24:18.001Z,17.13
2022-10-17T07:25:26.064Z,17.57
2022-10-17T07:26:02.330Z,17.75
2022-10-17T07:26:34.043Z,17.88
2022-10-17T07:27:05.565Z,18.06
2022-10-17T07:27:37.111Z,18.38
2022-10-17T07:28:08.661Z,18.48
2022-10-17T07:28:42.785Z,18.55
2022-10-17T07:29:14.375Z,18.63
2022-10-17T07:29:48.071Z,19.08
2022-10-17T07:30:20.278Z,19.88
2022-10-17T07:30:53.737Z,21.15
2022-10-17T07:31:26.106Z,22.53
2022-10-17T07:31:57.626Z,23.91
2022-10-17T07:32:29.151Z,24.93
2022-10-17T07:33:00.691Z,24.61
2022-10-17T07:33:32.545Z,25.24
2022-10-17T07:34:04.386Z,26.12
2022-10-17T07:34:36.569Z,26.73
2022-10-17T07:35:08.490Z,25.81
2022-10-17T07:35:41.021Z,26.87
2022-10-17T07:36:13.333Z,27.43
2022-10-17T07:36:45.162Z,27.90
2022-10-17T07:37:16.712Z,27.02
2022-10-17T07:37:48.301Z,27.18
2022-10-17T07:38:19.905Z,27.05
2022-10-17T07:38:51.472Z,27.18
2022-10-17T07:39:23.243Z,26.23